sensor_id;sensor_type;location;lat;lon;timestamp;pressure;altitude;pressure_sealevel;temperature;humidity
11343;BME280;5726;42.160;24.746;2022-11-14T00:01:15;100790.09;;;10.10;100.00
11343;BME280;5726;42.160;24.746;2022-11-14T00:03:40;100791.22;;;10.19;100.00
11343;BME280;5726;42.160;24.746;2022-11-14T00:06:06;100789.19;;;10.31;100.00
11343;BME280;5726;42.160;24.746;2022-11-14T00:08:32;100786.00;;;10.34;100.00
11343;BME280;5726;42.160;24.746;2022-11-14T00:10:58;100782.25;;;10.35;100.00
11343;BME280;5726;42.160;24.746;2022-11-14T00:13:24;100784.69;;;10.05;100.00
11343;BME280;5726;42.160;24.746;2022-11-14T00:15:50;100778.56;;;10.10;100.00
11343;BME280;5726;42.160;24.746;2022-11-14T00:18:19;100777.47;;;10.06;100.00
11343;BME280;5726;42.160;24.746;2022-11-14T00:20:48;100776.84;;;9.99;100.00
11343;BME280;5726;42.160;24.746;2022-11-14T00:23:14;100777.81;;;9.88;100.00
11343;BME280;5726;42.160;24.746;2022-11-14T00:25:39;100761.22;;;9.91;100.00
11343;BME280;5726;42.160;24.746;2022-11-14T00:28:05;100767.88;;;9.89;100.00
11343;BME280;5726;42.160;24.746;2022-11-14T00:30:30;100763.66;;;9.93;100.00
11343;BME280;5726;42.160;24.746;2022-11-14T00:32:56;100767.59;;;10.11;100.00
11343;BME280;5726;42.160;24.746;2022-11-14T00:35:21;100756.91;;;10.16;100.00
11343;BME280;5726;42.160;24.746;2022-11-14T00:37:47;100759.66;;;10.26;100.00
11343;BME280;5726;42.160;24.746;2022-11-14T00:40:12;100756.47;;;10.29;100.00
11343;BME280;5726;42.160;24.746;2022-11-14T00:42:39;100764.00;;;10.32;100.00
11343;BME280;5726;42.160;24.746;2022-11-14T00:45:04;100759.31;;;10.49;100.00
11343;BME280;5726;42.160;24.746;2022-11-14T00:47:30;100753.00;;;10.29;100.00
11343;BME280;5726;42.160;24.746;2022-11-14T00:49:55;100748.19;;;10.31;100.00
11343;BME280;5726;42.160;24.746;2022-11-14T00:52:21;100752.16;;;10.23;100.00
11343;BME280;5726;42.160;24.746;2022-11-14T00:54:46;100746.81;;;10.28;100.00
11343;BME280;5726;42.160;24.746;2022-11-14T00:57:12;100741.00;;;10.36;100.00
11343;BME280;5726;42.160;24.746;2022-11-14T00:59:37;100740.16;;;10.36;100.00
11343;BME280;5726;42.160;24.746;2022-11-14T01:02:02;100740.47;;;10.39;100.00
11343;BME280;5726;42.160;24.746;2022-11-14T01:04:28;100734.63;;;10.47;100.00
11343;BME280;5726;42.160;24.746;2022-11-14T01:06:53;100740.03;;;10.16;100.00
11343;BME280;5726;42.160;24.746;2022-11-14T01:09:19;100742.53;;;10.27;100.00
11343;BME280;5726;42.160;24.746;2022-11-14T01:11:44;100743.09;;;9.98;100.00
11343;BME280;5726;42.160;24.746;2022-11-14T01:14:09;100735.41;;;10.06;100.00
11343;BME280;5726;42.160;24.746;2022-11-14T01:16:35;100736.53;;;10.15;100.00
11343;BME280;5726;42.160;24.746;2022-11-14T01:19:01;100727.34;;;10.06;100.00
11343;BME280;5726;42.160;24.746;2022-11-14T01:21:27;100727.66;;;10.10;100.00
11343;BME280;5726;42.160;24.746;2022-11-14T01:23:52;100733.97;;;10.30;100.00
11343;BME280;5726;42.160;24.746;2022-11-14T01:26:18;100730.41;;;10.20;100.00
11343;BME280;5726;42.160;24.746;2022-11-14T01:28:43;100720.22;;;10.17;100.00
11343;BME280;5726;42.160;24.746;2022-11-14T01:31:16;100722.59;;;10.13;100.00
11343;BME280;5726;42.160;24.746;2022-11-14T01:33:42;100722.31;;;10.15;100.00
11343;BME280;5726;42.160;24.746;2022-11-14T01:36:08;100718.28;;;10.12;100.00
11343;BME280;5726;42.160;24.746;2022-11-14T01:38:34;100717.19;;;10.08;100.00
11343;BME280;5726;42.160;24.746;2022-11-14T01:41:00;100719.03;;;9.77;100.00
11343;BME280;5726;42.160;24.746;2022-11-14T01:43:29;100721.22;;;9.85;100.00
11343;BME280;5726;42.160;24.746;2022-11-14T01:45:59;100720.72;;;10.14;100.00
11343;BME280;5726;42.160;24.746;2022-11-14T01:48:30;100717.50;;;10.12;100.00
11343;BME280;5726;42.160;24.746;2022-11-14T01:51:11;100716.09;;;10.04;100.00
11343;BME280;5726;42.160;24.746;2022-11-14T01:53:39;100709.38;;;10.02;100.00
11343;BME280;5726;42.160;24.746;2022-11-14T01:56:07;100711.06;;;10.13;100.00
11343;BME280;5726;42.160;24.746;2022-11-14T01:58:36;100716.00;;;9.95;100.00
11343;BME280;5726;42.160;24.746;2022-11-14T02:01:03;100709.75;;;10.15;100.00
11343;BME280;5726;42.160;24.746;2022-11-14T02:03:30;100716.50;;;9.65;100.00
11343;BME280;5726;42.160;24.746;2022-11-14T02:05:55;100715.06;;;9.58;100.00
11343;BME280;5726;42.160;24.746;2022-11-14T02:08:22;100708.53;;;9.70;100.00
11343;BME280;5726;42.160;24.746;2022-11-14T02:10:48;100703.47;;;9.74;100.00
11343;BME280;5726;42.160;24.746;2022-11-14T02:13:13;100709.63;;;9.74;100.00
11343;BME280;5726;42.160;24.746;2022-11-14T02:15:39;100707.00;;;9.53;100.00
11343;BME280;5726;42.160;24.746;2022-11-14T02:18:05;100697.34;;;9.04;100.00
11343;BME280;5726;42.160;24.746;2022-11-14T02:20:35;100705.81;;;8.97;100.00
11343;BME280;5726;42.160;24.746;2022-11-14T02:23:01;100700.09;;;8.88;100.00
11343;BME280;5726;42.160;24.746;2022-11-14T02:25:26;100692.91;;;8.89;100.00
11343;BME280;5726;42.160;24.746;2022-11-14T02:27:52;100697.47;;;8.72;100.00
11343;BME280;5726;42.160;24.746;2022-11-14T02:30:21;100695.19;;;8.80;100.00
11343;BME280;5726;42.160;24.746;2022-11-14T02:32:46;100690.94;;;8.63;100.00
11343;BME280;5726;42.160;24.746;2022-11-14T02:35:12;100686.13;;;8.44;100.00
11343;BME280;5726;42.160;24.746;2022-11-14T02:37:37;100685.59;;;8.63;100.00
11343;BME280;5726;42.160;24.746;2022-11-14T02:40:04;100689.28;;;8.41;100.00
11343;BME280;5726;42.160;24.746;2022-11-14T02:42:29;100691.41;;;8.22;100.00
11343;BME280;5726;42.160;24.746;2022-11-14T02:44:55;100686.31;;;8.37;100.00
11343;BME280;5726;42.160;24.746;2022-11-14T02:47:20;100684.53;;;8.26;100.00
11343;BME280;5726;42.160;24.746;2022-11-14T02:49:46;100677.63;;;8.30;100.00
11343;BME280;5726;42.160;24.746;2022-11-14T02:52:11;100692.69;;;8.36;100.00
11343;BME280;5726;42.160;24.746;2022-11-14T02:54:36;100691.00;;;8.30;100.00
11343;BME280;5726;42.160;24.746;2022-11-14T02:57:02;100691.72;;;8.42;100.00
11343;BME280;5726;42.160;24.746;2022-11-14T02:59:27;100690.88;;;8.58;100.00
11343;BME280;5726;42.160;24.746;2022-11-14T03:01:53;100690.63;;;8.81;100.00
11343;BME280;5726;42.160;24.746;2022-11-14T03:04:18;100695.31;;;8.90;100.00
11343;BME280;5726;42.160;24.746;2022-11-14T03:06:43;100686.97;;;8.87;100.00
11343;BME280;5726;42.160;24.746;2022-11-14T03:09:09;100696.34;;;9.10;100.00
11343;BME280;5726;42.160;24.746;2022-11-14T03:11:34;100692.75;;;9.21;100.00
11343;BME280;5726;42.160;24.746;2022-11-14T03:14:00;100697.97;;;9.11;100.00
11343;BME280;5726;42.160;24.746;2022-11-14T03:16:25;100701.03;;;9.20;100.00
11343;BME280;5726;42.160;24.746;2022-11-14T03:18:51;100705.06;;;9.22;100.00
11343;BME280;5726;42.160;24.746;2022-11-14T03:21:21;100700.28;;;9.24;100.00
11343;BME280;5726;42.160;24.746;2022-11-14T03:23:47;100690.63;;;9.23;100.00
11343;BME280;5726;42.160;24.746;2022-11-14T03:26:13;100703.13;;;9.18;100.00
11343;BME280;5726;42.160;24.746;2022-11-14T03:28:39;100700.19;;;9.19;100.00
11343;BME280;5726;42.160;24.746;2022-11-14T03:31:06;100702.97;;;9.24;100.00
11343;BME280;5726;42.160;24.746;2022-11-14T03:33:33;100702.63;;;9.21;100.00
11343;BME280;5726;42.160;24.746;2022-11-14T03:36:00;100701.44;;;9.12;100.00
11343;BME280;5726;42.160;24.746;2022-11-14T03:38:26;100704.56;;;9.25;100.00
11343;BME280;5726;42.160;24.746;2022-11-14T03:40:51;100702.97;;;9.24;100.00
11343;BME280;5726;42.160;24.746;2022-11-14T03:43:18;100696.28;;;9.27;100.00
11343;BME280;5726;42.160;24.746;2022-11-14T03:45:44;100695.69;;;9.20;100.00
11343;BME280;5726;42.160;24.746;2022-11-14T03:48:10;100683.66;;;9.22;100.00
11343;BME280;5726;42.160;24.746;2022-11-14T03:50:36;100692.84;;;9.31;100.00
11343;BME280;5726;42.160;24.746;2022-11-14T03:53:02;100691.91;;;9.42;100.00
11343;BME280;5726;42.160;24.746;2022-11-14T03:55:27;100695.88;;;9.40;100.00
11343;BME280;5726;42.160;24.746;2022-11-14T03:57:53;100696.19;;;9.43;100.00
11343;BME280;5726;42.160;24.746;2022-11-14T04:00:18;100698.94;;;9.27;100.00
11343;BME280;5726;42.160;24.746;2022-11-14T04:02:44;100696.13;;;9.38;100.00
11343;BME280;5726;42.160;24.746;2022-11-14T04:05:09;100696.75;;;9.45;100.00
11343;BME280;5726;42.160;24.746;2022-11-14T04:07:35;100698.78;;;9.33;100.00
11343;BME280;5726;42.160;24.746;2022-11-14T04:10:00;100706.38;;;9.46;100.00
11343;BME280;5726;42.160;24.746;2022-11-14T04:12:26;100702.53;;;9.37;100.00
11343;BME280;5726;42.160;24.746;2022-11-14T04:14:51;100707.31;;;9.30;100.00
11343;BME280;5726;42.160;24.746;2022-11-14T04:17:17;100689.63;;;9.29;100.00
11343;BME280;5726;42.160;24.746;2022-11-14T04:19:42;100697.69;;;9.34;100.00
11343;BME280;5726;42.160;24.746;2022-11-14T04:22:08;100693.97;;;9.35;100.00
11343;BME280;5726;42.160;24.746;2022-11-14T04:24:33;100692.16;;;9.41;100.00
11343;BME280;5726;42.160;24.746;2022-11-14T04:26:58;100694.22;;;9.34;100.00
11343;BME280;5726;42.160;24.746;2022-11-14T04:29:24;100692.97;;;9.41;100.00
11343;BME280;5726;42.160;24.746;2022-11-14T04:31:49;100695.69;;;9.46;100.00
11343;BME280;5726;42.160;24.746;2022-11-14T04:34:16;100692.16;;;9.41;100.00
11343;BME280;5726;42.160;24.746;2022-11-14T04:36:42;100696.44;;;9.42;100.00
11343;BME280;5726;42.160;24.746;2022-11-14T04:39:07;100690.28;;;9.41;100.00
11343;BME280;5726;42.160;24.746;2022-11-14T04:41:32;100696.59;;;9.56;100.00
11343;BME280;5726;42.160;24.746;2022-11-14T04:43:58;100695.63;;;9.41;100.00
11343;BME280;5726;42.160;24.746;2022-11-14T04:46:23;100698.69;;;9.28;100.00
11343;BME280;5726;42.160;24.746;2022-11-14T04:48:49;100697.81;;;9.44;100.00
11343;BME280;5726;42.160;24.746;2022-11-14T04:51:14;100704.44;;;9.63;100.00
11343;BME280;5726;42.160;24.746;2022-11-14T04:53:40;100700.53;;;9.49;100.00
11343;BME280;5726;42.160;24.746;2022-11-14T04:56:06;100694.34;;;9.44;100.00
11343;BME280;5726;42.160;24.746;2022-11-14T04:58:31;100695.59;;;9.36;100.00
11343;BME280;5726;42.160;24.746;2022-11-14T05:00:57;100699.88;;;9.37;100.00
11343;BME280;5726;42.160;24.746;2022-11-14T05:03:23;100699.94;;;9.42;100.00
11343;BME280;5726;42.160;24.746;2022-11-14T05:05:49;100707.22;;;9.47;100.00
11343;BME280;5726;42.160;24.746;2022-11-14T05:08:14;100709.44;;;9.54;100.00
11343;BME280;5726;42.160;24.746;2022-11-14T05:10:44;100725.75;;;9.53;100.00
11343;BME280;5726;42.160;24.746;2022-11-14T05:13:10;100715.75;;;9.44;100.00
11343;BME280;5726;42.160;24.746;2022-11-14T05:15:36;100718.88;;;9.62;100.00
11343;BME280;5726;42.160;24.746;2022-11-14T05:18:02;100716.03;;;9.47;100.00
11343;BME280;5726;42.160;24.746;2022-11-14T05:20:27;100718.00;;;9.56;100.00
11343;BME280;5726;42.160;24.746;2022-11-14T05:22:53;100725.78;;;9.58;100.00
11343;BME280;5726;42.160;24.746;2022-11-14T05:25:19;100729.53;;;9.57;100.00
11343;BME280;5726;42.160;24.746;2022-11-14T05:27:45;100726.81;;;9.78;100.00
11343;BME280;5726;42.160;24.746;2022-11-14T05:30:11;100725.78;;;9.84;100.00
11343;BME280;5726;42.160;24.746;2022-11-14T05:32:37;100725.06;;;10.20;100.00
11343;BME280;5726;42.160;24.746;2022-11-14T05:35:02;100737.03;;;10.07;100.00
11343;BME280;5726;42.160;24.746;2022-11-14T05:37:28;100733.13;;;10.25;100.00
11343;BME280;5726;42.160;24.746;2022-11-14T05:39:54;100742.91;;;10.41;100.00
11343;BME280;5726;42.160;24.746;2022-11-14T05:42:19;100739.81;;;10.58;100.00
11343;BME280;5726;42.160;24.746;2022-11-14T05:44:45;100743.31;;;10.64;100.00
11343;BME280;5726;42.160;24.746;2022-11-14T05:47:10;100748.25;;;10.82;100.00
11343;BME280;5726;42.160;24.746;2022-11-14T05:49:35;100756.88;;;10.84;100.00
11343;BME280;5726;42.160;24.746;2022-11-14T05:52:01;100752.41;;;11.04;100.00
11343;BME280;5726;42.160;24.746;2022-11-14T05:54:26;100758.72;;;11.34;100.00
11343;BME280;5726;42.160;24.746;2022-11-14T05:56:52;100752.81;;;11.42;100.00
11343;BME280;5726;42.160;24.746;2022-11-14T05:59:17;100759.63;;;11.59;100.00
11343;BME280;5726;42.160;24.746;2022-11-14T06:01:42;100752.41;;;11.75;100.00
11343;BME280;5726;42.160;24.746;2022-11-14T06:04:08;100757.53;;;11.81;100.00
11343;BME280;5726;42.160;24.746;2022-11-14T06:06:33;100761.03;;;11.82;100.00
11343;BME280;5726;42.160;24.746;2022-11-14T06:08:59;100751.88;;;11.78;100.00
11343;BME280;5726;42.160;24.746;2022-11-14T06:11:24;100751.09;;;11.82;100.00
11343;BME280;5726;42.160;24.746;2022-11-14T06:13:49;100758.47;;;11.41;100.00
11343;BME280;5726;42.160;24.746;2022-11-14T06:16:17;100754.22;;;11.49;100.00
11343;BME280;5726;42.160;24.746;2022-11-14T06:18:43;100747.00;;;11.65;100.00
11343;BME280;5726;42.160;24.746;2022-11-14T06:21:12;100754.03;;;11.76;100.00
11343;BME280;5726;42.160;24.746;2022-11-14T06:23:38;100749.19;;;11.73;100.00
11343;BME280;5726;42.160;24.746;2022-11-14T06:26:07;100753.50;;;11.79;100.00
11343;BME280;5726;42.160;24.746;2022-11-14T06:28:33;100758.06;;;11.68;100.00
11343;BME280;5726;42.160;24.746;2022-11-14T06:31:00;100759.41;;;11.81;100.00
11343;BME280;5726;42.160;24.746;2022-11-14T06:33:28;100757.28;;;11.93;100.00
11343;BME280;5726;42.160;24.746;2022-11-14T06:36:01;100755.09;;;11.75;100.00
11343;BME280;5726;42.160;24.746;2022-11-14T06:38:29;100755.63;;;11.72;100.00
11343;BME280;5726;42.160;24.746;2022-11-14T06:43:39;100755.03;;;11.50;100.00
11343;BME280;5726;42.160;24.746;2022-11-14T06:46:06;100757.25;;;11.78;100.00
11343;BME280;5726;42.160;24.746;2022-11-14T06:48:32;100762.66;;;12.07;100.00
11343;BME280;5726;42.160;24.746;2022-11-14T06:50:59;100758.63;;;11.80;100.00
11343;BME280;5726;42.160;24.746;2022-11-14T06:53:26;100747.78;;;11.55;100.00
11343;BME280;5726;42.160;24.746;2022-11-14T06:56:09;100754.69;;;11.37;100.00
11343;BME280;5726;42.160;24.746;2022-11-14T06:58:37;100746.47;;;11.58;100.00
11343;BME280;5726;42.160;24.746;2022-11-14T07:01:09;100756.63;;;11.46;100.00
11343;BME280;5726;42.160;24.746;2022-11-14T07:03:35;100753.34;;;11.44;100.00
11343;BME280;5726;42.160;24.746;2022-11-14T07:06:01;100755.78;;;11.36;100.00
11343;BME280;5726;42.160;24.746;2022-11-14T07:08:27;100752.19;;;11.15;100.00
11343;BME280;5726;42.160;24.746;2022-11-14T07:10:53;100749.28;;;11.27;100.00
11343;BME280;5726;42.160;24.746;2022-11-14T07:13:18;100755.31;;;10.97;100.00
11343;BME280;5726;42.160;24.746;2022-11-14T07:15:51;100756.47;;;10.65;100.00
11343;BME280;5726;42.160;24.746;2022-11-14T07:18:17;100754.16;;;10.38;100.00
11343;BME280;5726;42.160;24.746;2022-11-14T07:20:42;100764.25;;;10.31;100.00
11343;BME280;5726;42.160;24.746;2022-11-14T07:23:07;100759.28;;;10.44;100.00
11343;BME280;5726;42.160;24.746;2022-11-14T07:25:33;100760.31;;;10.38;100.00
11343;BME280;5726;42.160;24.746;2022-11-14T07:27:58;100754.50;;;10.51;100.00
11343;BME280;5726;42.160;24.746;2022-11-14T07:30:24;100758.53;;;10.53;100.00
11343;BME280;5726;42.160;24.746;2022-11-14T07:32:56;100753.56;;;10.72;100.00
11343;BME280;5726;42.160;24.746;2022-11-14T07:35:22;100751.75;;;10.41;100.00
11343;BME280;5726;42.160;24.746;2022-11-14T07:37:48;100752.28;;;10.43;100.00
11343;BME280;5726;42.160;24.746;2022-11-14T07:40:14;100750.22;;;10.55;100.00
11343;BME280;5726;42.160;24.746;2022-11-14T07:42:40;100745.38;;;10.52;100.00
11343;BME280;5726;42.160;24.746;2022-11-14T07:45:05;100753.16;;;10.90;100.00
11343;BME280;5726;42.160;24.746;2022-11-14T07:47:31;100747.84;;;10.58;100.00
11343;BME280;5726;42.160;24.746;2022-11-14T07:49:56;100737.38;;;10.57;100.00
11343;BME280;5726;42.160;24.746;2022-11-14T07:52:22;100738.00;;;10.69;100.00
11343;BME280;5726;42.160;24.746;2022-11-14T07:54:47;100735.78;;;10.61;100.00
11343;BME280;5726;42.160;24.746;2022-11-14T07:57:13;100739.84;;;10.68;100.00
11343;BME280;5726;42.160;24.746;2022-11-14T07:59:38;100740.16;;;10.72;100.00
11343;BME280;5726;42.160;24.746;2022-11-14T08:02:04;100741.31;;;10.86;100.00
11343;BME280;5726;42.160;24.746;2022-11-14T08:04:29;100740.19;;;10.82;100.00
11343;BME280;5726;42.160;24.746;2022-11-14T08:06:54;100737.81;;;10.85;100.00
11343;BME280;5726;42.160;24.746;2022-11-14T08:09:20;100740.53;;;10.95;100.00
11343;BME280;5726;42.160;24.746;2022-11-14T08:11:47;100741.41;;;11.05;100.00
11343;BME280;5726;42.160;24.746;2022-11-14T08:14:13;100742.88;;;11.33;100.00
11343;BME280;5726;42.160;24.746;2022-11-14T08:16:39;100738.41;;;11.58;100.00
11343;BME280;5726;42.160;24.746;2022-11-14T08:19:04;100722.88;;;12.09;100.00
11343;BME280;5726;42.160;24.746;2022-11-14T08:21:30;100733.06;;;12.52;100.00
11343;BME280;5726;42.160;24.746;2022-11-14T08:23:56;100723.38;;;12.61;100.00
11343;BME280;5726;42.160;24.746;2022-11-14T08:26:21;100715.22;;;13.00;100.00
11343;BME280;5726;42.160;24.746;2022-11-14T08:28:47;100732.91;;;13.21;100.00
11343;BME280;5726;42.160;24.746;2022-11-14T08:31:12;100734.09;;;13.53;100.00
11343;BME280;5726;42.160;24.746;2022-11-14T08:33:38;100733.22;;;13.68;100.00
11343;BME280;5726;42.160;24.746;2022-11-14T08:36:05;100736.31;;;13.84;100.00
11343;BME280;5726;42.160;24.746;2022-11-14T08:38:31;100736.19;;;14.09;100.00
11343;BME280;5726;42.160;24.746;2022-11-14T08:40:58;100723.13;;;14.21;100.00
11343;BME280;5726;42.160;24.746;2022-11-14T08:43:24;100725.22;;;14.29;100.00
11343;BME280;5726;42.160;24.746;2022-11-14T08:45:50;100725.91;;;14.44;100.00
11343;BME280;5726;42.160;24.746;2022-11-14T08:48:15;100724.41;;;14.85;100.00
11343;BME280;5726;42.160;24.746;2022-11-14T08:50:41;100719.94;;;14.76;100.00
11343;BME280;5726;42.160;24.746;2022-11-14T08:53:07;100720.91;;;14.84;100.00
11343;BME280;5726;42.160;24.746;2022-11-14T08:55:33;100715.94;;;14.91;100.00
11343;BME280;5726;42.160;24.746;2022-11-14T08:57:58;100706.94;;;14.78;100.00
11343;BME280;5726;42.160;24.746;2022-11-14T09:00:24;100714.75;;;14.79;100.00
11343;BME280;5726;42.160;24.746;2022-11-14T09:02:49;100715.84;;;15.01;100.00
11343;BME280;5726;42.160;24.746;2022-11-14T09:05:15;100712.69;;;15.18;100.00
11343;BME280;5726;42.160;24.746;2022-11-14T09:07:40;100709.88;;;15.04;100.00
11343;BME280;5726;42.160;24.746;2022-11-14T09:10:06;100707.88;;;14.40;100.00
11343;BME280;5726;42.160;24.746;2022-11-14T09:12:32;100701.91;;;14.43;100.00
11343;BME280;5726;42.160;24.746;2022-11-14T09:14:58;100700.91;;;14.34;100.00
11343;BME280;5726;42.160;24.746;2022-11-14T09:17:23;100690.97;;;14.58;100.00
11343;BME280;5726;42.160;24.746;2022-11-14T09:19:49;100705.09;;;14.96;100.00
11343;BME280;5726;42.160;24.746;2022-11-14T09:22:14;100693.94;;;14.80;100.00
11343;BME280;5726;42.160;24.746;2022-11-14T09:24:40;100695.97;;;14.41;100.00
11343;BME280;5726;42.160;24.746;2022-11-14T09:27:05;100683.88;;;14.62;100.00
11343;BME280;5726;42.160;24.746;2022-11-14T09:29:31;100688.63;;;14.46;100.00
11343;BME280;5726;42.160;24.746;2022-11-14T09:31:56;100684.84;;;14.71;100.00
11343;BME280;5726;42.160;24.746;2022-11-14T09:34:22;100672.34;;;14.80;100.00
11343;BME280;5726;42.160;24.746;2022-11-14T09:36:47;100670.41;;;14.85;100.00
11343;BME280;5726;42.160;24.746;2022-11-14T09:39:13;100680.25;;;14.94;100.00
11343;BME280;5726;42.160;24.746;2022-11-14T09:47:08;100656.22;;;15.16;100.00
11343;BME280;5726;42.160;24.746;2022-11-14T09:49:40;100652.69;;;15.39;100.00
11343;BME280;5726;42.160;24.746;2022-11-14T09:52:36;100655.66;;;15.19;100.00
11343;BME280;5726;42.160;24.746;2022-11-14T09:55:11;100646.47;;;15.20;100.00
11343;BME280;5726;42.160;24.746;2022-11-14T09:57:40;100639.75;;;14.94;100.00
11343;BME280;5726;42.160;24.746;2022-11-14T10:00:24;100639.34;;;14.82;100.00
11343;BME280;5726;42.160;24.746;2022-11-14T10:19:27;100613.00;;;15.16;100.00
11343;BME280;5726;42.160;24.746;2022-11-14T10:22:26;100619.00;;;15.31;100.00
11343;BME280;5726;42.160;24.746;2022-11-14T10:27:39;100605.88;;;15.25;100.00
11343;BME280;5726;42.160;24.746;2022-11-14T10:30:17;100597.22;;;15.23;100.00
11343;BME280;5726;42.160;24.746;2022-11-14T10:40:47;100586.97;;;15.25;100.00
11343;BME280;5726;42.160;24.746;2022-11-14T10:43:21;100584.94;;;15.12;100.00
11343;BME280;5726;42.160;24.746;2022-11-14T10:45:54;100578.84;;;15.25;100.00
11343;BME280;5726;42.160;24.746;2022-11-14T10:48:27;100567.50;;;15.41;100.00
11343;BME280;5726;42.160;24.746;2022-11-14T10:53:55;100568.50;;;15.45;100.00
11343;BME280;5726;42.160;24.746;2022-11-14T10:56:22;100559.03;;;15.48;100.00
11343;BME280;5726;42.160;24.746;2022-11-14T10:58:48;100557.53;;;15.55;100.00
11343;BME280;5726;42.160;24.746;2022-11-14T11:06:49;100562.25;;;15.81;100.00
11343;BME280;5726;42.160;24.746;2022-11-14T11:09:21;100560.94;;;15.92;100.00
11343;BME280;5726;42.160;24.746;2022-11-14T11:12:06;100550.03;;;15.97;100.00
11343;BME280;5726;42.160;24.746;2022-11-14T11:14:33;100544.00;;;15.87;100.00
11343;BME280;5726;42.160;24.746;2022-11-14T11:19:37;100534.41;;;16.08;100.00
11343;BME280;5726;42.160;24.746;2022-11-14T11:22:03;100532.38;;;15.86;100.00
11343;BME280;5726;42.160;24.746;2022-11-14T11:24:35;100529.25;;;15.79;100.00
11343;BME280;5726;42.160;24.746;2022-11-14T11:27:25;100519.91;;;16.04;100.00
11343;BME280;5726;42.160;24.746;2022-11-14T11:30:05;100514.25;;;16.00;100.00
11343;BME280;5726;42.160;24.746;2022-11-14T11:32:31;100519.19;;;16.12;100.00
11343;BME280;5726;42.160;24.746;2022-11-14T11:34:58;100519.38;;;16.15;100.00
11343;BME280;5726;42.160;24.746;2022-11-14T11:40:19;100508.78;;;16.19;100.00
11343;BME280;5726;42.160;24.746;2022-11-14T11:45:20;100507.66;;;16.06;100.00
11343;BME280;5726;42.160;24.746;2022-11-14T11:47:55;100502.16;;;16.11;100.00
11343;BME280;5726;42.160;24.746;2022-11-14T11:50:22;100495.53;;;15.77;100.00
11343;BME280;5726;42.160;24.746;2022-11-14T11:53:01;100497.53;;;15.98;100.00
11343;BME280;5726;42.160;24.746;2022-11-14T11:55:32;100499.34;;;16.03;100.00
11343;BME280;5726;42.160;24.746;2022-11-14T11:58:04;100495.94;;;15.97;100.00
11343;BME280;5726;42.160;24.746;2022-11-14T12:00:31;100487.91;;;15.92;100.00
11343;BME280;5726;42.160;24.746;2022-11-14T12:02:57;100488.13;;;16.09;100.00
11343;BME280;5726;42.160;24.746;2022-11-14T12:10:43;100482.50;;;16.06;100.00
11343;BME280;5726;42.160;24.746;2022-11-14T12:13:24;100480.03;;;16.23;100.00
11343;BME280;5726;42.160;24.746;2022-11-14T12:21:32;100474.69;;;16.04;100.00
11343;BME280;5726;42.160;24.746;2022-11-14T12:32:13;100470.91;;;16.05;100.00
11343;BME280;5726;42.160;24.746;2022-11-14T12:34:43;100467.59;;;15.81;100.00
11343;BME280;5726;42.160;24.746;2022-11-14T12:37:35;100472.28;;;16.03;100.00
11343;BME280;5726;42.160;24.746;2022-11-14T12:42:49;100461.06;;;16.09;100.00
11343;BME280;5726;42.160;24.746;2022-11-14T12:50:50;100457.88;;;16.07;100.00
11343;BME280;5726;42.160;24.746;2022-11-14T13:01:53;100458.47;;;16.04;100.00
11343;BME280;5726;42.160;24.746;2022-11-14T13:12:41;100449.75;;;15.94;100.00
11343;BME280;5726;42.160;24.746;2022-11-14T13:15:48;100446.03;;;16.03;100.00
11343;BME280;5726;42.160;24.746;2022-11-14T13:18:33;100441.03;;;16.37;100.00
11343;BME280;5726;42.160;24.746;2022-11-14T13:21:26;100442.41;;;16.21;100.00
11343;BME280;5726;42.160;24.746;2022-11-14T13:24:17;100437.44;;;16.01;100.00
11343;BME280;5726;42.160;24.746;2022-11-14T13:26:44;100433.63;;;16.16;100.00
11343;BME280;5726;42.160;24.746;2022-11-14T13:32:00;100436.03;;;16.04;100.00
11343;BME280;5726;42.160;24.746;2022-11-14T13:40:36;100429.91;;;15.98;100.00
11343;BME280;5726;42.160;24.746;2022-11-14T13:43:29;100430.81;;;16.07;100.00
11343;BME280;5726;42.160;24.746;2022-11-14T13:46:00;100421.19;;;16.15;100.00
11343;BME280;5726;42.160;24.746;2022-11-14T13:51:19;100430.03;;;16.07;100.00
11343;BME280;5726;42.160;24.746;2022-11-14T13:53:46;100426.41;;;16.11;100.00
11343;BME280;5726;42.160;24.746;2022-11-14T13:56:24;100429.00;;;16.16;100.00
11343;BME280;5726;42.160;24.746;2022-11-14T14:10:41;100420.59;;;15.77;100.00
11343;BME280;5726;42.160;24.746;2022-11-14T14:16:21;100431.91;;;15.93;100.00
11343;BME280;5726;42.160;24.746;2022-11-14T14:24:13;100418.00;;;15.86;100.00
11343;BME280;5726;42.160;24.746;2022-11-14T14:30:01;100423.59;;;15.89;100.00
11343;BME280;5726;42.160;24.746;2022-11-14T14:32:23;100418.28;;;16.11;100.00
11343;BME280;5726;42.160;24.746;2022-11-14T14:34:48;100415.97;;;16.31;100.00
11343;BME280;5726;42.160;24.746;2022-11-14T14:37:19;100420.59;;;16.31;100.00
11343;BME280;5726;42.160;24.746;2022-11-14T14:40:26;100411.53;;;16.49;100.00
11343;BME280;5726;42.160;24.746;2022-11-14T14:42:52;100407.72;;;16.50;100.00
11343;BME280;5726;42.160;24.746;2022-11-14T14:45:20;100405.06;;;16.58;100.00
11343;BME280;5726;42.160;24.746;2022-11-14T14:47:48;100405.03;;;16.72;100.00
11343;BME280;5726;42.160;24.746;2022-11-14T14:50:23;100406.56;;;16.64;100.00
11343;BME280;5726;42.160;24.746;2022-11-14T14:52:57;100414.00;;;16.59;100.00
11343;BME280;5726;42.160;24.746;2022-11-14T14:55:29;100414.44;;;16.74;100.00
11343;BME280;5726;42.160;24.746;2022-11-14T14:58:33;100417.81;;;16.93;100.00